sensor_id;sensor_type;location;lat;lon;timestamp;temperature;humidity
18733;DHT22;9495;51.210;2.934;2024-03-22T00:02:26;13.60;99.90
18733;DHT22;9495;51.210;2.934;2024-03-22T00:04:54;13.40;99.90
18733;DHT22;9495;51.210;2.934;2024-03-22T00:07:21;13.50;99.90
18733;DHT22;9495;51.210;2.934;2024-03-22T00:09:47;13.50;99.90
18733;DHT22;9495;51.210;2.934;2024-03-22T00:12:14;13.70;99.90
18733;DHT22;9495;51.210;2.934;2024-03-22T00:14:41;13.80;99.90
18733;DHT22;9495;51.210;2.934;2024-03-22T00:17:08;13.60;99.90
18733;DHT22;9495;51.210;2.934;2024-03-22T00:19:35;13.90;99.90
18733;DHT22;9495;51.210;2.934;2024-03-22T00:22:03;13.70;99.90
18733;DHT22;9495;51.210;2.934;2024-03-22T00:24:30;13.70;99.90
18733;DHT22;9495;51.210;2.934;2024-03-22T00:26:57;13.80;99.90
18733;DHT22;9495;51.210;2.934;2024-03-22T00:29:23;13.80;99.90
18733;DHT22;9495;51.210;2.934;2024-03-22T00:31:52;13.80;99.90
18733;DHT22;9495;51.210;2.934;2024-03-22T00:34:18;14.10;99.90
18733;DHT22;9495;51.210;2.934;2024-03-22T00:36:45;13.80;99.90
18733;DHT22;9495;51.210;2.934;2024-03-22T00:39:13;13.90;99.90
18733;DHT22;9495;51.210;2.934;2024-03-22T00:41:40;14.30;99.90
18733;DHT22;9495;51.210;2.934;2024-03-22T00:44:06;14.00;99.90
18733;DHT22;9495;51.210;2.934;2024-03-22T00:46:34;14.00;99.90
18733;DHT22;9495;51.210;2.934;2024-03-22T00:49:01;14.20;99.90
18733;DHT22;9495;51.210;2.934;2024-03-22T00:51:28;14.30;99.90
18733;DHT22;9495;51.210;2.934;2024-03-22T00:53:54;14.00;99.90
18733;DHT22;9495;51.210;2.934;2024-03-22T00:56:23;14.10;99.90
18733;DHT22;9495;51.210;2.934;2024-03-22T00:58:50;13.80;99.90
18733;DHT22;9495;51.210;2.934;2024-03-22T01:01:17;13.70;99.90
18733;DHT22;9495;51.210;2.934;2024-03-22T01:03:45;13.60;99.90
18733;DHT22;9495;51.210;2.934;2024-03-22T01:06:11;13.50;99.90
18733;DHT22;9495;51.210;2.934;2024-03-22T01:08:38;13.60;99.90
18733;DHT22;9495;51.210;2.934;2024-03-22T01:11:04;13.80;99.90
18733;DHT22;9495;51.210;2.934;2024-03-22T01:13:33;13.70;99.90
18733;DHT22;9495;51.210;2.934;2024-03-22T01:15:59;13.80;99.90
18733;DHT22;9495;51.210;2.934;2024-03-22T01:18:26;13.70;99.90
18733;DHT22;9495;51.210;2.934;2024-03-22T01:20:52;13.70;99.90
18733;DHT22;9495;51.210;2.934;2024-03-22T01:23:19;13.60;99.90
18733;DHT22;9495;51.210;2.934;2024-03-22T01:25:45;13.70;99.90
18733;DHT22;9495;51.210;2.934;2024-03-22T01:28:13;13.60;99.90
18733;DHT22;9495;51.210;2.934;2024-03-22T01:30:40;13.30;99.90
18733;DHT22;9495;51.210;2.934;2024-03-22T01:33:07;13.70;99.90
18733;DHT22;9495;51.210;2.934;2024-03-22T01:35:33;13.50;99.90
18733;DHT22;9495;51.210;2.934;2024-03-22T01:38:01;13.60;99.90
18733;DHT22;9495;51.210;2.934;2024-03-22T01:40:27;13.60;99.90
18733;DHT22;9495;51.210;2.934;2024-03-22T01:42:55;13.70;99.90
18733;DHT22;9495;51.210;2.934;2024-03-22T01:45:22;13.60;99.90
18733;DHT22;9495;51.210;2.934;2024-03-22T01:47:52;14.00;99.90
18733;DHT22;9495;51.210;2.934;2024-03-22T01:50:20;13.60;99.90
18733;DHT22;9495;51.210;2.934;2024-03-22T01:52:47;13.40;99.90
18733;DHT22;9495;51.210;2.934;2024-03-22T01:55:14;13.90;99.90
18733;DHT22;9495;51.210;2.934;2024-03-22T01:57:42;13.70;99.90
18733;DHT22;9495;51.210;2.934;2024-03-22T02:00:09;13.30;99.90
18733;DHT22;9495;51.210;2.934;2024-03-22T02:02:36;13.40;99.90
18733;DHT22;9495;51.210;2.934;2024-03-22T02:05:13;13.40;99.90
18733;DHT22;9495;51.210;2.934;2024-03-22T02:07:42;13.50;99.90
18733;DHT22;9495;51.210;2.934;2024-03-22T02:10:09;13.40;99.90
18733;DHT22;9495;51.210;2.934;2024-03-22T02:12:38;13.50;99.90
18733;DHT22;9495;51.210;2.934;2024-03-22T02:15:06;14.00;99.90
18733;DHT22;9495;51.210;2.934;2024-03-22T02:17:33;13.80;99.90
18733;DHT22;9495;51.210;2.934;2024-03-22T02:20:00;13.70;99.90
18733;DHT22;9495;51.210;2.934;2024-03-22T02:22:27;13.90;99.90
18733;DHT22;9495;51.210;2.934;2024-03-22T02:24:56;13.50;99.90
18733;DHT22;9495;51.210;2.934;2024-03-22T02:27:22;13.70;99.90
18733;DHT22;9495;51.210;2.934;2024-03-22T02:29:49;14.10;99.90
18733;DHT22;9495;51.210;2.934;2024-03-22T02:32:15;14.20;99.90
18733;DHT22;9495;51.210;2.934;2024-03-22T02:34:43;14.00;99.90
18733;DHT22;9495;51.210;2.934;2024-03-22T02:37:09;13.80;99.90
18733;DHT22;9495;51.210;2.934;2024-03-22T02:39:36;13.80;99.90
18733;DHT22;9495;51.210;2.934;2024-03-22T02:42:04;13.90;99.90
18733;DHT22;9495;51.210;2.934;2024-03-22T02:44:31;14.40;99.90
18733;DHT22;9495;51.210;2.934;2024-03-22T02:46:57;14.40;99.90
18733;DHT22;9495;51.210;2.934;2024-03-22T02:49:25;14.50;99.90
18733;DHT22;9495;51.210;2.934;2024-03-22T02:51:51;14.50;99.90
18733;DHT22;9495;51.210;2.934;2024-03-22T02:54:18;14.20;99.90
18733;DHT22;9495;51.210;2.934;2024-03-22T02:56:44;14.60;99.90
18733;DHT22;9495;51.210;2.934;2024-03-22T02:59:13;14.50;99.90
18733;DHT22;9495;51.210;2.934;2024-03-22T03:01:39;14.30;99.90
18733;DHT22;9495;51.210;2.934;2024-03-22T03:04:06;14.30;99.90
18733;DHT22;9495;51.210;2.934;2024-03-22T03:06:32;14.50;99.90
18733;DHT22;9495;51.210;2.934;2024-03-22T03:08:59;14.10;99.90
18733;DHT22;9495;51.210;2.934;2024-03-22T03:11:26;14.50;99.90
18733;DHT22;9495;51.210;2.934;2024-03-22T03:13:53;14.30;99.90
18733;DHT22;9495;51.210;2.934;2024-03-22T03:16:20;14.40;99.90
18733;DHT22;9495;51.210;2.934;2024-03-22T03:18:48;13.90;99.90
18733;DHT22;9495;51.210;2.934;2024-03-22T03:21:14;13.80;99.90
18733;DHT22;9495;51.210;2.934;2024-03-22T03:23:41;13.70;99.90
18733;DHT22;9495;51.210;2.934;2024-03-22T03:26:07;14.00;99.90
18733;DHT22;9495;51.210;2.934;2024-03-22T03:28:34;14.10;99.90
18733;DHT22;9495;51.210;2.934;2024-03-22T03:31:00;14.30;99.90
18733;DHT22;9495;51.210;2.934;2024-03-22T03:33:29;14.10;99.90
18733;DHT22;9495;51.210;2.934;2024-03-22T03:35:55;14.10;99.90
18733;DHT22;9495;51.210;2.934;2024-03-22T03:38:22;14.10;99.90
18733;DHT22;9495;51.210;2.934;2024-03-22T03:40:49;13.70;99.90
18733;DHT22;9495;51.210;2.934;2024-03-22T03:43:16;14.10;99.90
18733;DHT22;9495;51.210;2.934;2024-03-22T03:45:42;14.00;99.90
18733;DHT22;9495;51.210;2.934;2024-03-22T03:48:09;14.00;99.90
18733;DHT22;9495;51.210;2.934;2024-03-22T03:50:37;14.00;99.90
18733;DHT22;9495;51.210;2.934;2024-03-22T03:53:04;13.90;99.90
18733;DHT22;9495;51.210;2.934;2024-03-22T03:55:30;13.80;99.90
18733;DHT22;9495;51.210;2.934;2024-03-22T03:57:57;13.50;99.90
18733;DHT22;9495;51.210;2.934;2024-03-22T04:00:23;13.90;99.90
18733;DHT22;9495;51.210;2.934;2024-03-22T04:02:50;13.80;99.90
18733;DHT22;9495;51.210;2.934;2024-03-22T04:05:17;13.90;99.90
18733;DHT22;9495;51.210;2.934;2024-03-22T04:07:48;13.60;99.90
18733;DHT22;9495;51.210;2.934;2024-03-22T04:10:15;13.70;99.90
18733;DHT22;9495;51.210;2.934;2024-03-22T04:12:42;13.60;99.90
18733;DHT22;9495;51.210;2.934;2024-03-22T04:15:08;14.10;99.90
18733;DHT22;9495;51.210;2.934;2024-03-22T04:17:36;14.30;99.90
18733;DHT22;9495;51.210;2.934;2024-03-22T04:20:02;14.00;99.90
18733;DHT22;9495;51.210;2.934;2024-03-22T04:22:29;14.10;99.90
18733;DHT22;9495;51.210;2.934;2024-03-22T04:24:57;14.10;99.90
18733;DHT22;9495;51.210;2.934;2024-03-22T04:27:24;14.00;99.90
18733;DHT22;9495;51.210;2.934;2024-03-22T04:29:51;14.10;99.90
18733;DHT22;9495;51.210;2.934;2024-03-22T04:32:18;14.20;99.90
18733;DHT22;9495;51.210;2.934;2024-03-22T04:34:44;14.50;99.90
18733;DHT22;9495;51.210;2.934;2024-03-22T04:37:11;14.60;99.90
18733;DHT22;9495;51.210;2.934;2024-03-22T04:39:40;14.40;99.90
18733;DHT22;9495;51.210;2.934;2024-03-22T04:42:08;14.50;99.90
18733;DHT22;9495;51.210;2.934;2024-03-22T04:44:36;14.60;99.90
18733;DHT22;9495;51.210;2.934;2024-03-22T04:47:03;14.50;99.90
18733;DHT22;9495;51.210;2.934;2024-03-22T04:49:29;14.20;99.90
18733;DHT22;9495;51.210;2.934;2024-03-22T04:51:57;14.00;99.90
18733;DHT22;9495;51.210;2.934;2024-03-22T04:54:23;13.90;99.90
18733;DHT22;9495;51.210;2.934;2024-03-22T04:56:50;13.90;99.90
18733;DHT22;9495;51.210;2.934;2024-03-22T04:59:17;14.10;99.90
18733;DHT22;9495;51.210;2.934;2024-03-22T05:01:45;13.90;99.90
18733;DHT22;9495;51.210;2.934;2024-03-22T05:04:11;13.90;99.90
18733;DHT22;9495;51.210;2.934;2024-03-22T05:06:38;13.80;99.90
18733;DHT22;9495;51.210;2.934;2024-03-22T05:09:04;13.80;99.90
18733;DHT22;9495;51.210;2.934;2024-03-22T05:11:31;13.90;99.90
18733;DHT22;9495;51.210;2.934;2024-03-22T05:13:58;13.70;99.90
18733;DHT22;9495;51.210;2.934;2024-03-22T05:16:26;13.90;99.90
18733;DHT22;9495;51.210;2.934;2024-03-22T05:18:52;14.00;99.90
18733;DHT22;9495;51.210;2.934;2024-03-22T05:21:19;14.10;99.90
18733;DHT22;9495;51.210;2.934;2024-03-22T05:23:46;14.10;99.90
18733;DHT22;9495;51.210;2.934;2024-03-22T05:26:13;14.00;99.90
18733;DHT22;9495;51.210;2.934;2024-03-22T05:28:40;14.20;99.90
18733;DHT22;9495;51.210;2.934;2024-03-22T05:31:07;14.00;99.90
18733;DHT22;9495;51.210;2.934;2024-03-22T05:33:35;13.90;99.90
18733;DHT22;9495;51.210;2.934;2024-03-22T05:36:02;13.90;99.90
18733;DHT22;9495;51.210;2.934;2024-03-22T05:38:28;13.90;99.90
18733;DHT22;9495;51.210;2.934;2024-03-22T05:40:56;13.80;99.90
18733;DHT22;9495;51.210;2.934;2024-03-22T05:43:22;14.00;99.90
18733;DHT22;9495;51.210;2.934;2024-03-22T05:45:49;13.70;99.90
18733;DHT22;9495;51.210;2.934;2024-03-22T05:48:16;14.10;99.90
18733;DHT22;9495;51.210;2.934;2024-03-22T05:50:44;14.20;99.90
18733;DHT22;9495;51.210;2.934;2024-03-22T05:53:11;14.20;99.90
18733;DHT22;9495;51.210;2.934;2024-03-22T05:55:38;14.30;99.90
18733;DHT22;9495;51.210;2.934;2024-03-22T05:58:04;14.20;99.90
18733;DHT22;9495;51.210;2.934;2024-03-22T06:00:31;13.80;99.90
18733;DHT22;9495;51.210;2.934;2024-03-22T06:02:57;13.60;99.90
18733;DHT22;9495;51.210;2.934;2024-03-22T06:05:25;13.90;99.90
18733;DHT22;9495;51.210;2.934;2024-03-22T06:07:53;13.60;99.90
18733;DHT22;9495;51.210;2.934;2024-03-22T06:10:20;13.50;99.90
18733;DHT22;9495;51.210;2.934;2024-03-22T06:12:46;13.50;99.90
18733;DHT22;9495;51.210;2.934;2024-03-22T06:15:14;13.70;99.90
18733;DHT22;9495;51.210;2.934;2024-03-22T06:17:40;13.60;99.90
18733;DHT22;9495;51.210;2.934;2024-03-22T06:20:09;13.50;99.90
18733;DHT22;9495;51.210;2.934;2024-03-22T06:22:35;13.50;99.90
18733;DHT22;9495;51.210;2.934;2024-03-22T06:25:05;13.50;99.90
18733;DHT22;9495;51.210;2.934;2024-03-22T06:27:31;13.50;99.90
18733;DHT22;9495;51.210;2.934;2024-03-22T06:29:58;13.60;99.90
18733;DHT22;9495;51.210;2.934;2024-03-22T06:32:24;13.50;99.90
18733;DHT22;9495;51.210;2.934;2024-03-22T06:34:51;13.20;99.90
18733;DHT22;9495;51.210;2.934;2024-03-22T06:37:17;13.40;99.90
18733;DHT22;9495;51.210;2.934;2024-03-22T06:39:45;13.10;99.90
18733;DHT22;9495;51.210;2.934;2024-03-22T06:42:12;13.10;99.90
18733;DHT22;9495;51.210;2.934;2024-03-22T06:44:40;13.60;99.90
18733;DHT22;9495;51.210;2.934;2024-03-22T06:47:08;13.50;99.90
18733;DHT22;9495;51.210;2.934;2024-03-22T06:49:35;13.60;99.90
18733;DHT22;9495;51.210;2.934;2024-03-22T06:52:01;13.60;99.90
18733;DHT22;9495;51.210;2.934;2024-03-22T06:54:28;13.80;99.90
18733;DHT22;9495;51.210;2.934;2024-03-22T06:56:54;13.80;99.90
18733;DHT22;9495;51.210;2.934;2024-03-22T06:59:23;14.20;99.90
18733;DHT22;9495;51.210;2.934;2024-03-22T07:01:49;14.10;99.90
18733;DHT22;9495;51.210;2.934;2024-03-22T07:04:16;14.10;99.90
18733;DHT22;9495;51.210;2.934;2024-03-22T07:06:42;14.10;99.90
18733;DHT22;9495;51.210;2.934;2024-03-22T07:09:09;14.00;99.90
18733;DHT22;9495;51.210;2.934;2024-03-22T07:11:35;14.10;99.90
18733;DHT22;9495;51.210;2.934;2024-03-22T07:14:03;13.80;99.90
18733;DHT22;9495;51.210;2.934;2024-03-22T07:16:31;13.90;99.90
18733;DHT22;9495;51.210;2.934;2024-03-22T07:18:57;13.80;99.90
18733;DHT22;9495;51.210;2.934;2024-03-22T07:21:24;13.40;99.90
18733;DHT22;9495;51.210;2.934;2024-03-22T07:23:51;13.20;99.90
18733;DHT22;9495;51.210;2.934;2024-03-22T07:26:18;13.50;99.90
18733;DHT22;9495;51.210;2.934;2024-03-22T07:28:44;13.40;99.90
18733;DHT22;9495;51.210;2.934;2024-03-22T07:31:11;13.60;99.90
18733;DHT22;9495;51.210;2.934;2024-03-22T07:33:39;13.50;99.90
18733;DHT22;9495;51.210;2.934;2024-03-22T07:36:07;13.50;99.90
18733;DHT22;9495;51.210;2.934;2024-03-22T07:38:33;13.70;99.90
18733;DHT22;9495;51.210;2.934;2024-03-22T07:41:00;13.70;99.90
18733;DHT22;9495;51.210;2.934;2024-03-22T07:43:26;13.70;99.90
18733;DHT22;9495;51.210;2.934;2024-03-22T07:45:53;13.50;99.90
18733;DHT22;9495;51.210;2.934;2024-03-22T07:48:19;13.20;99.90
18733;DHT22;9495;51.210;2.934;2024-03-22T07:50:56;13.20;99.90
18733;DHT22;9495;51.210;2.934;2024-03-22T07:53:22;13.20;99.90
18733;DHT22;9495;51.210;2.934;2024-03-22T07:55:49;13.10;99.90
18733;DHT22;9495;51.210;2.934;2024-03-22T07:58:15;13.00;99.90
18733;DHT22;9495;51.210;2.934;2024-03-22T08:00:42;12.70;99.90
18733;DHT22;9495;51.210;2.934;2024-03-22T08:03:14;12.60;99.90
18733;DHT22;9495;51.210;2.934;2024-03-22T08:05:42;12.80;99.90
18733;DHT22;9495;51.210;2.934;2024-03-22T08:08:10;13.20;99.90
18733;DHT22;9495;51.210;2.934;2024-03-22T08:10:37;12.90;99.90
18733;DHT22;9495;51.210;2.934;2024-03-22T08:13:03;13.10;99.90
18733;DHT22;9495;51.210;2.934;2024-03-22T08:15:30;13.20;99.90
18733;DHT22;9495;51.210;2.934;2024-03-22T08:17:57;13.30;99.90
18733;DHT22;9495;51.210;2.934;2024-03-22T08:20:24;13.20;99.90
18733;DHT22;9495;51.210;2.934;2024-03-22T08:22:50;13.40;99.90
18733;DHT22;9495;51.210;2.934;2024-03-22T08:25:19;13.50;99.90
18733;DHT22;9495;51.210;2.934;2024-03-22T08:27:46;13.30;99.90
18733;DHT22;9495;51.210;2.934;2024-03-22T08:30:14;13.40;99.90
18733;DHT22;9495;51.210;2.934;2024-03-22T08:32:40;13.50;99.90
18733;DHT22;9495;51.210;2.934;2024-03-22T08:35:08;13.60;99.90
18733;DHT22;9495;51.210;2.934;2024-03-22T08:37:34;13.60;99.90
18733;DHT22;9495;51.210;2.934;2024-03-22T08:40:01;13.20;99.90
18733;DHT22;9495;51.210;2.934;2024-03-22T08:42:31;13.20;99.90
18733;DHT22;9495;51.210;2.934;2024-03-22T08:44:59;12.90;99.90
18733;DHT22;9495;51.210;2.934;2024-03-22T08:47:25;13.00;99.90
18733;DHT22;9495;51.210;2.934;2024-03-22T08:49:52;13.30;99.90
18733;DHT22;9495;51.210;2.934;2024-03-22T08:52:18;13.30;99.90
18733;DHT22;9495;51.210;2.934;2024-03-22T08:54:46;13.50;99.90
18733;DHT22;9495;51.210;2.934;2024-03-22T08:57:12;13.50;99.90
18733;DHT22;9495;51.210;2.934;2024-03-22T08:59:41;13.40;99.90
18733;DHT22;9495;51.210;2.934;2024-03-22T09:02:07;13.20;99.90
18733;DHT22;9495;51.210;2.934;2024-03-22T09:04:34;13.30;99.90
18733;DHT22;9495;51.210;2.934;2024-03-22T09:07:00;13.50;99.90
18733;DHT22;9495;51.210;2.934;2024-03-22T09:09:28;13.60;99.90
18733;DHT22;9495;51.210;2.934;2024-03-22T09:11:55;13.20;99.90
18733;DHT22;9495;51.210;2.934;2024-03-22T09:14:21;13.60;99.90
18733;DHT22;9495;51.210;2.934;2024-03-22T09:16:50;13.50;99.90
18733;DHT22;9495;51.210;2.934;2024-03-22T09:19:16;13.60;99.90
18733;DHT22;9495;51.210;2.934;2024-03-22T09:21:43;13.70;99.90
18733;DHT22;9495;51.210;2.934;2024-03-22T09:24:10;13.60;99.90
18733;DHT22;9495;51.210;2.934;2024-03-22T09:26:37;13.20;99.90
18733;DHT22;9495;51.210;2.934;2024-03-22T09:29:03;13.40;99.90
18733;DHT22;9495;51.210;2.934;2024-03-22T09:31:30;13.00;99.90
18733;DHT22;9495;51.210;2.934;2024-03-22T09:33:59;13.20;99.90
18733;DHT22;9495;51.210;2.934;2024-03-22T09:36:27;13.30;99.90
18733;DHT22;9495;51.210;2.934;2024-03-22T09:38:53;13.00;99.90
18733;DHT22;9495;51.210;2.934;2024-03-22T09:41:24;13.20;99.90
18733;DHT22;9495;51.210;2.934;2024-03-22T09:43:52;13.00;99.90
18733;DHT22;9495;51.210;2.934;2024-03-22T09:46:20;12.90;99.90
18733;DHT22;9495;51.210;2.934;2024-03-22T09:48:47;13.10;99.90
18733;DHT22;9495;51.210;2.934;2024-03-22T09:51:17;12.80;99.90
18733;DHT22;9495;51.210;2.934;2024-03-22T09:53:44;12.70;99.90
18733;DHT22;9495;51.210;2.934;2024-03-22T09:56:14;13.10;99.90
18733;DHT22;9495;51.210;2.934;2024-03-22T09:58:41;13.10;99.90
18733;DHT22;9495;51.210;2.934;2024-03-22T10:01:08;12.90;99.90
18733;DHT22;9495;51.210;2.934;2024-03-22T10:03:34;12.90;99.90
18733;DHT22;9495;51.210;2.934;2024-03-22T10:06:03;13.00;99.90
18733;DHT22;9495;51.210;2.934;2024-03-22T10:08:30;13.20;99.90
18733;DHT22;9495;51.210;2.934;2024-03-22T10:11:01;13.20;99.90
18733;DHT22;9495;51.210;2.934;2024-03-22T10:13:27;13.10;99.90
18733;DHT22;9495;51.210;2.934;2024-03-22T10:15:56;13.30;99.90
18733;DHT22;9495;51.210;2.934;2024-03-22T10:18:22;13.20;99.90
18733;DHT22;9495;51.210;2.934;2024-03-22T10:20:59;13.00;99.90
18733;DHT22;9495;51.210;2.934;2024-03-22T10:23:25;13.40;99.90
18733;DHT22;9495;51.210;2.934;2024-03-22T10:25:55;13.30;99.90
18733;DHT22;9495;51.210;2.934;2024-03-22T10:28:21;13.20;99.90
18733;DHT22;9495;51.210;2.934;2024-03-22T10:30:50;13.30;99.90
18733;DHT22;9495;51.210;2.934;2024-03-22T10:33:18;12.90;99.90
18733;DHT22;9495;51.210;2.934;2024-03-22T10:35:46;13.20;99.90
18733;DHT22;9495;51.210;2.934;2024-03-22T10:38:13;13.00;99.90
18733;DHT22;9495;51.210;2.934;2024-03-22T10:40:44;12.80;99.90
18733;DHT22;9495;51.210;2.934;2024-03-22T10:43:12;12.90;99.90
18733;DHT22;9495;51.210;2.934;2024-03-22T10:45:40;13.00;99.90
18733;DHT22;9495;51.210;2.934;2024-03-22T10:48:09;13.20;99.90
18733;DHT22;9495;51.210;2.934;2024-03-22T10:50:39;13.40;99.90
18733;DHT22;9495;51.210;2.934;2024-03-22T10:53:09;13.40;99.90
18733;DHT22;9495;51.210;2.934;2024-03-22T10:55:38;12.80;99.90
18733;DHT22;9495;51.210;2.934;2024-03-22T10:58:07;13.00;99.90
18733;DHT22;9495;51.210;2.934;2024-03-22T11:00:42;13.10;99.90
18733;DHT22;9495;51.210;2.934;2024-03-22T11:03:09;13.30;99.90
18733;DHT22;9495;51.210;2.934;2024-03-22T11:05:45;13.20;99.90
18733;DHT22;9495;51.210;2.934;2024-03-22T11:08:11;12.90;99.90
18733;DHT22;9495;51.210;2.934;2024-03-22T11:10:39;12.60;99.90
18733;DHT22;9495;51.210;2.934;2024-03-22T11:13:06;12.60;99.90
18733;DHT22;9495;51.210;2.934;2024-03-22T11:15:34;12.40;99.90
18733;DHT22;9495;51.210;2.934;2024-03-22T11:18:02;12.70;99.90
18733;DHT22;9495;51.210;2.934;2024-03-22T11:20:29;12.70;99.90
18733;DHT22;9495;51.210;2.934;2024-03-22T11:22:56;12.70;99.90
18733;DHT22;9495;51.210;2.934;2024-03-22T11:25:24;12.70;99.90
18733;DHT22;9495;51.210;2.934;2024-03-22T11:27:51;12.60;99.90
18733;DHT22;9495;51.210;2.934;2024-03-22T11:30:20;12.40;99.90
18733;DHT22;9495;51.210;2.934;2024-03-22T11:32:46;12.30;99.90
18733;DHT22;9495;51.210;2.934;2024-03-22T11:35:15;12.50;99.90
18733;DHT22;9495;51.210;2.934;2024-03-22T11:37:41;12.50;99.90
18733;DHT22;9495;51.210;2.934;2024-03-22T11:40:09;12.40;99.90
18733;DHT22;9495;51.210;2.934;2024-03-22T11:42:36;12.30;99.90
18733;DHT22;9495;51.210;2.934;2024-03-22T11:45:05;12.60;99.90
18733;DHT22;9495;51.210;2.934;2024-03-22T11:47:33;12.50;99.90
18733;DHT22;9495;51.210;2.934;2024-03-22T11:50:01;12.50;99.90
18733;DHT22;9495;51.210;2.934;2024-03-22T11:52:28;12.70;99.90
18733;DHT22;9495;51.210;2.934;2024-03-22T11:54:56;12.30;99.90
18733;DHT22;9495;51.210;2.934;2024-03-22T11:57:23;12.20;99.90
18733;DHT22;9495;51.210;2.934;2024-03-22T11:59:51;12.40;99.90
18733;DHT22;9495;51.210;2.934;2024-03-22T12:02:17;12.10;99.90
18733;DHT22;9495;51.210;2.934;2024-03-22T12:04:46;12.00;99.90
18733;DHT22;9495;51.210;2.934;2024-03-22T12:07:13;12.20;99.90
18733;DHT22;9495;51.210;2.934;2024-03-22T12:09:42;12.30;99.90
18733;DHT22;9495;51.210;2.934;2024-03-22T12:12:10;12.30;99.90
18733;DHT22;9495;51.210;2.934;2024-03-22T12:14:38;12.60;99.90
18733;DHT22;9495;51.210;2.934;2024-03-22T12:17:05;12.30;99.90
18733;DHT22;9495;51.210;2.934;2024-03-22T12:19:32;12.30;99.90
18733;DHT22;9495;51.210;2.934;2024-03-22T12:21:59;12.70;99.90
18733;DHT22;9495;51.210;2.934;2024-03-22T12:24:26;12.60;99.90
18733;DHT22;9495;51.210;2.934;2024-03-22T12:26:54;12.50;99.90
18733;DHT22;9495;51.210;2.934;2024-03-22T12:29:21;12.30;99.90
18733;DHT22;9495;51.210;2.934;2024-03-22T12:31:47;12.20;99.90
18733;DHT22;9495;51.210;2.934;2024-03-22T12:34:15;12.20;99.90
18733;DHT22;9495;51.210;2.934;2024-03-22T12:36:41;12.10;99.90
18733;DHT22;9495;51.210;2.934;2024-03-22T12:39:09;12.20;99.90
18733;DHT22;9495;51.210;2.934;2024-03-22T12:41:35;12.20;99.90
18733;DHT22;9495;51.210;2.934;2024-03-22T12:44:04;12.30;99.90
18733;DHT22;9495;51.210;2.934;2024-03-22T12:46:30;12.20;99.90
18733;DHT22;9495;51.210;2.934;2024-03-22T12:48:57;12.00;99.90
18733;DHT22;9495;51.210;2.934;2024-03-22T12:51:23;12.20;99.90
18733;DHT22;9495;51.210;2.934;2024-03-22T12:53:51;12.30;99.90
18733;DHT22;9495;51.210;2.934;2024-03-22T12:56:18;12.40;99.90
18733;DHT22;9495;51.210;2.934;2024-03-22T12:58:45;12.10;99.90
18733;DHT22;9495;51.210;2.934;2024-03-22T13:01:12;12.20;99.90
18733;DHT22;9495;51.210;2.934;2024-03-22T13:03:40;12.20;99.90
18733;DHT22;9495;51.210;2.934;2024-03-22T13:06:06;12.20;99.90
18733;DHT22;9495;51.210;2.934;2024-03-22T13:08:33;12.20;99.90
18733;DHT22;9495;51.210;2.934;2024-03-22T13:10:59;12.10;99.90
18733;DHT22;9495;51.210;2.934;2024-03-22T13:13:27;12.00;99.90
18733;DHT22;9495;51.210;2.934;2024-03-22T13:15:56;12.30;99.90
18733;DHT22;9495;51.210;2.934;2024-03-22T13:18:24;12.30;99.90
18733;DHT22;9495;51.210;2.934;2024-03-22T13:20:50;12.30;99.90
18733;DHT22;9495;51.210;2.934;2024-03-22T13:23:18;12.50;99.90
18733;DHT22;9495;51.210;2.934;2024-03-22T13:25:44;12.40;99.90
18733;DHT22;9495;51.210;2.934;2024-03-22T13:28:11;12.30;99.90
18733;DHT22;9495;51.210;2.934;2024-03-22T13:30:37;12.40;99.90
18733;DHT22;9495;51.210;2.934;2024-03-22T13:33:04;12.50;99.90
18733;DHT22;9495;51.210;2.934;2024-03-22T13:35:32;12.50;99.90
18733;DHT22;9495;51.210;2.934;2024-03-22T13:38:00;12.70;99.90
18733;DHT22;9495;51.210;2.934;2024-03-22T13:40:26;12.50;99.90
18733;DHT22;9495;51.210;2.934;2024-03-22T13:42:53;12.50;99.90
18733;DHT22;9495;51.210;2.934;2024-03-22T13:45:20;12.50;99.90
18733;DHT22;9495;51.210;2.934;2024-03-22T13:47:47;12.40;99.90
18733;DHT22;9495;51.210;2.934;2024-03-22T13:50:13;12.30;99.90
18733;DHT22;9495;51.210;2.934;2024-03-22T13:52:42;12.30;99.90
18733;DHT22;9495;51.210;2.934;2024-03-22T13:55:08;12.10;99.90
18733;DHT22;9495;51.210;2.934;2024-03-22T13:57:35;12.20;99.90
18733;DHT22;9495;51.210;2.934;2024-03-22T14:00:02;12.20;99.90
18733;DHT22;9495;51.210;2.934;2024-03-22T14:02:32;12.10;99.90
18733;DHT22;9495;51.210;2.934;2024-03-22T14:04:59;12.10;99.90
18733;DHT22;9495;51.210;2.934;2024-03-22T14:07:28;12.10;99.90
18733;DHT22;9495;51.210;2.934;2024-03-22T14:09:56;12.10;99.90
18733;DHT22;9495;51.210;2.934;2024-03-22T14:12:23;12.10;99.90
18733;DHT22;9495;51.210;2.934;2024-03-22T14:14:49;12.10;99.90
18733;DHT22;9495;51.210;2.934;2024-03-22T14:17:16;12.00;99.90
18733;DHT22;9495;51.210;2.934;2024-03-22T14:19:42;12.10;99.90
18733;DHT22;9495;51.210;2.934;2024-03-22T14:22:11;11.90;99.90
18733;DHT22;9495;51.210;2.934;2024-03-22T14:24:38;12.00;99.90
18733;DHT22;9495;51.210;2.934;2024-03-22T14:27:06;11.90;99.90
18733;DHT22;9495;51.210;2.934;2024-03-22T14:29:32;11.90;99.90
18733;DHT22;9495;51.210;2.934;2024-03-22T14:32:00;12.00;99.90
18733;DHT22;9495;51.210;2.934;2024-03-22T14:34:26;11.80;99.90
18733;DHT22;9495;51.210;2.934;2024-03-22T14:36:53;11.90;99.90
18733;DHT22;9495;51.210;2.934;2024-03-22T14:39:19;11.80;99.90
18733;DHT22;9495;51.210;2.934;2024-03-22T14:41:46;11.80;99.90
18733;DHT22;9495;51.210;2.934;2024-03-22T14:44:15;11.90;99.90
18733;DHT22;9495;51.210;2.934;2024-03-22T14:46:42;11.80;99.90
18733;DHT22;9495;51.210;2.934;2024-03-22T14:49:09;11.90;99.90
18733;DHT22;9495;51.210;2.934;2024-03-22T14:51:36;11.90;99.90
18733;DHT22;9495;51.210;2.934;2024-03-22T14:54:02;11.90;99.90
18733;DHT22;9495;51.210;2.934;2024-03-22T14:56:30;11.90;99.90
18733;DHT22;9495;51.210;2.934;2024-03-22T14:58:56;11.90;99.90
18733;DHT22;9495;51.210;2.934;2024-03-22T15:01:27;11.90;99.90
18733;DHT22;9495;51.210;2.934;2024-03-22T15:03:53;11.90;99.90
18733;DHT22;9495;51.210;2.934;2024-03-22T15:06:20;11.80;99.90
18733;DHT22;9495;51.210;2.934;2024-03-22T15:08:46;11.80;99.90
18733;DHT22;9495;51.210;2.934;2024-03-22T15:11:13;11.90;99.90
18733;DHT22;9495;51.210;2.934;2024-03-22T15:13:39;11.90;99.90
18733;DHT22;9495;51.210;2.934;2024-03-22T15:16:07;11.90;99.90
18733;DHT22;9495;51.210;2.934;2024-03-22T15:18:35;11.90;99.90
18733;DHT22;9495;51.210;2.934;2024-03-22T15:21:02;11.90;99.90
18733;DHT22;9495;51.210;2.934;2024-03-22T15:23:29;12.00;99.90
18733;DHT22;9495;51.210;2.934;2024-03-22T15:25:56;12.00;99.90
18733;DHT22;9495;51.210;2.934;2024-03-22T15:28:23;12.00;99.90
18733;DHT22;9495;51.210;2.934;2024-03-22T15:30:50;12.00;99.90
18733;DHT22;9495;51.210;2.934;2024-03-22T15:33:16;12.00;99.90
18733;DHT22;9495;51.210;2.934;2024-03-22T15:35:45;12.00;99.90
18733;DHT22;9495;51.210;2.934;2024-03-22T15:38:15;12.00;99.90
18733;DHT22;9495;51.210;2.934;2024-03-22T15:40:42;12.10;99.90
18733;DHT22;9495;51.210;2.934;2024-03-22T15:43:09;12.10;99.90
18733;DHT22;9495;51.210;2.934;2024-03-22T15:45:37;12.10;99.90